This is the latest recevied weather packets stored in our database for station/object OE6CUD-6. If no packets are shown the sender has not sent any weather packets the latest 10 day(s).
| Time | Temp. | Humidity | Pressure | Rain* | Wind** | Luminosity | Snow |
|---|---|---|---|---|---|---|---|
| 1777908262 | 27.22° C | 45% | 1012.1 hPa | 0 mm | - | 332 W/m² | - |
| 1777905549 | 27.78° C | 43% | 1012.7 hPa | 0 mm | - | 520 W/m² | - |
| 1777903747 | 27.78° C | 43% | 1013 hPa | 0 mm | - | 601 W/m² | - |
| 1777902830 | 27.78° C | 43% | 1013.2 hPa | 0 mm | - | 555 W/m² | - |
| 1777902378 | 27.78° C | 41% | 1013.3 hPa | 0 mm | - | 621 W/m² | - |
| 1777901472 | 27.78° C | 40% | 1013.5 hPa | 0 mm | - | 589 W/m² | - |
| 1777898910 | 27.78° C | 44% | 1014.3 hPa | 0 mm | - | 770 W/m² | - |
| 1777896184 | 26.67° C | 44% | 1014.8 hPa | 0 mm | - | 828 W/m² | - |
| 1777894967 | 24.44° C | 49% | 1014.7 hPa | 0 mm | - | 582 W/m² | - |
| 1777887443 | 21.67° C | 55% | 1015.8 hPa | 0 mm | - | 689 W/m² | - |
| 1777885931 | 21.67° C | 58% | 1016 hPa | 0 mm | - | 686 W/m² | - |
| 1777884289 | 20° C | 62% | 1016 hPa | 0 mm | - | 594 W/m² | - |
| 1777882493 | 20.56° C | 63% | 1016.1 hPa | 0 mm | - | 629 W/m² | - |
| 1777880506 | 18.33° C | 65% | 1015.7 hPa | 0 mm | - | 448 W/m² | - |
| 1777878993 | 17.78° C | 68% | 1015.6 hPa | 0 mm | - | 473 W/m² | - |
| 1777877792 | 16.67° C | 72% | 1015.5 hPa | 0 mm | - | 58 W/m² | - |
| 1777876627 | 15° C | 77% | 1015.3 hPa | 0 mm | - | 74 W/m² | - |
| 1777875390 | 15° C | 78% | 1015.3 hPa | 0 mm | - | 77 W/m² | - |
| 1777874191 | 12.78° C | 87% | 1014.9 hPa | 0 mm | - | 84 W/m² | - |
| 1777872992 | 11.67° C | 91% | 1014.8 hPa | 0 mm | - | 60 W/m² | - |
| 1777872076 | 10° C | 98% | 1014.5 hPa | 0 mm | - | 49 W/m² | - |
| 1777867851 | 8.89° C | 95% | 1014.3 hPa | 0 mm | - | 21 W/m² | - |
| 1777866635 | 8.89° C | 93% | 1014.2 hPa | 0 mm | - | 9 W/m² | - |
| 1777866331 | 8.89° C | 93% | 1014.3 hPa | 0 mm | - | 5 W/m² | - |
| 1777865731 | 8.89° C | 92% | 1014.3 hPa | 0 mm | - | 0 W/m² | - |
* Rain latest hour (hover to see other rain measurements)
** Current wind speed in m/s (hover to see current wind gust speed)